Time;durP1;ratioP1;P1;durP2;ratioP2;P2;SDS_P1;SDS_P2;PMS_P1;PMS_P2;Temp;Humidity;BMP_temperature;BMP_pressure;BME280_temperature;BME280_humidity;BME280_pressure;Samples;Min_cycle;Max_cycle;Signal;HPM_P1;HPM_P2
2021/04/23 00:01:16;;;;;;;20.43;7.73;;;5.90;81.70;;;;;;5055241;28;20199;-84
2021/04/23 00:03:50;;;;;;;26.47;8.27;;;5.90;81.70;;;;;;5055536;28;20184;-83
2021/04/23 00:06:20;;;;;;;20.30;8.03;;;5.90;82.10;;;;;;5054083;28;20262;-83
2021/04/23 00:08:50;;;;;;;22.07;8.10;;;5.90;82.10;;;;;;5055603;28;20243;-84
2021/04/23 00:11:19;;;;;;;24.17;7.00;;;5.90;82.00;;;;;;5055636;28;20253;-84
2021/04/23 00:13:45;;;;;;;26.53;8.67;;;5.90;82.30;;;;;;5053821;28;20199;-83
2021/04/23 00:16:12;;;;;;;18.30;7.60;;;5.90;82.00;;;;;;5055172;28;20199;-84
2021/04/23 00:18:39;;;;;;;20.37;7.67;;;5.90;82.20;;;;;;5055107;28;20645;-85
2021/04/23 00:21:06;;;;;;;26.40;8.30;;;5.90;82.50;;;;;;5054943;28;20199;-85
2021/04/23 00:23:33;;;;;;;17.23;6.77;;;5.90;82.40;;;;;;5055083;28;20187;-85
2021/04/23 00:25:59;;;;;;;20.73;7.70;;;5.90;82.60;;;;;;5053718;28;20204;-85
2021/04/23 00:28:24;;;;;;;32.70;8.60;;;5.90;82.20;;;;;;5053644;28;20288;-85
2021/04/23 00:30:53;;;;;;;17.63;7.60;;;5.80;82.50;;;;;;5054748;28;20240;-85
2021/04/23 00:33:20;;;;;;;26.90;7.97;;;5.90;82.30;;;;;;5053732;28;20187;-85
2021/04/23 00:35:48;;;;;;;26.10;7.97;;;5.90;82.20;;;;;;5054725;28;20179;-85
2021/04/23 00:38:18;;;;;;;27.53;9.30;;;6.00;81.90;;;;;;5054863;28;20172;-84
2021/04/23 00:40:52;;;;;;;27.43;7.90;;;6.00;82.20;;;;;;5054603;28;20187;-85
2021/04/23 00:43:20;;;;;;;21.23;7.90;;;6.00;82.10;;;;;;5054809;28;20178;-85
2021/04/23 00:45:48;;;;;;;26.43;7.73;;;6.00;82.00;;;;;;5053255;28;20567;-85
2021/04/23 00:48:15;;;;;;;15.63;7.13;;;6.00;81.90;;;;;;5054582;28;20168;-84
2021/04/23 00:50:47;;;;;;;25.40;7.30;;;6.00;82.10;;;;;;5055052;28;20184;-85
2021/04/23 00:53:20;;;;;;;20.17;7.40;;;6.10;82.40;;;;;;5054790;28;20234;-85
2021/04/23 00:55:45;;;;;;;23.77;7.70;;;6.10;82.20;;;;;;5052998;28;20179;-84
2021/04/23 00:58:18;;;;;;;26.80;7.73;;;6.10;82.20;;;;;;5052408;28;20183;-84
2021/04/23 01:00:47;;;;;;;16.87;7.57;;;6.10;82.40;;;;;;5054123;28;20281;-85
2021/04/23 01:03:16;;;;;;;18.60;8.27;;;6.10;82.30;;;;;;5052869;28;20174;-84
2021/04/23 01:05:42;;;;;;;22.07;7.40;;;6.20;82.10;;;;;;5052870;28;20225;-85
2021/04/23 01:08:08;;;;;;;26.97;8.67;;;6.20;82.00;;;;;;5054045;28;20164;-85
2021/04/23 01:10:35;;;;;;;24.60;8.67;;;6.10;82.00;;;;;;5052747;28;20192;-84
2021/04/23 01:13:01;;;;;;;24.87;7.83;;;6.10;82.20;;;;;;5054194;28;20281;-85
2021/04/23 01:15:27;;;;;;;23.73;7.67;;;6.20;82.20;;;;;;5054069;28;20191;-85
2021/04/23 01:17:53;;;;;;;24.07;7.30;;;6.20;81.90;;;;;;5054064;28;20203;-84
2021/04/23 01:20:20;;;;;;;18.83;7.40;;;6.20;81.90;;;;;;5053907;28;20192;-85
2021/04/23 01:22:46;;;;;;;26.23;7.37;;;6.30;81.70;;;;;;5053879;28;20172;-85
2021/04/23 01:25:13;;;;;;;22.93;8.17;;;6.30;81.90;;;;;;5054612;28;20707;-85
2021/04/23 01:27:40;;;;;;;16.20;6.10;;;6.30;81.90;;;;;;5054646;28;20174;-84
2021/04/23 01:30:09;;;;;;;23.57;7.83;;;6.30;82.10;;;;;;5053742;28;20184;-85
2021/04/23 01:32:35;;;;;;;26.73;7.70;;;6.30;82.00;;;;;;5052331;28;20260;-84
2021/04/23 01:35:02;;;;;;;21.00;6.73;;;6.30;82.00;;;;;;5053747;28;20207;-84
2021/04/23 01:37:29;;;;;;;20.63;6.83;;;6.30;81.60;;;;;;5053493;28;20195;-85
2021/04/23 01:39:56;;;;;;;22.30;7.63;;;6.30;80.50;;;;;;5052291;28;20283;-85
2021/04/23 01:42:22;;;;;;;21.67;6.93;;;6.30;80.30;;;;;;5053609;28;20191;-85
2021/04/23 01:44:49;;;;;;;22.97;6.20;;;6.40;80.10;;;;;;5053892;28;20172;-85
2021/04/23 01:47:14;;;;;;;23.67;6.30;;;6.40;79.80;;;;;;5052135;28;20205;-85
2021/04/23 01:49:40;;;;;;;27.10;6.63;;;6.40;79.00;;;;;;5053560;28;20722;-85
2021/04/23 01:52:13;;;;;;;19.20;6.20;;;6.50;79.00;;;;;;5052036;28;20550;-85
2021/04/23 01:54:39;;;;;;;19.10;6.43;;;6.50;78.80;;;;;;5054304;28;20161;-85
2021/04/23 01:57:06;;;;;;;24.87;5.57;;;6.50;78.40;;;;;;5052924;28;20294;-84
2021/04/23 01:59:33;;;;;;;20.37;5.17;;;6.50;77.60;;;;;;5051972;28;20216;-85
2021/04/23 02:02:00;;;;;;;30.70;6.90;;;6.50;77.70;;;;;;5054165;28;20177;-85
2021/04/23 02:04:27;;;;;;;22.60;5.87;;;6.50;77.60;;;;;;5052069;28;20187;-85
2021/04/23 02:06:55;;;;;;;28.23;6.80;;;6.50;77.80;;;;;;5052024;28;20520;-85
2021/04/23 02:09:21;;;;;;;24.57;6.00;;;6.50;78.00;;;;;;5051949;28;20200;-85
2021/04/23 02:11:49;;;;;;;24.13;6.33;;;6.50;77.80;;;;;;5053175;28;20672;-85
2021/04/23 02:14:15;;;;;;;25.17;6.77;;;6.50;78.10;;;;;;5053354;28;20256;-85
2021/04/23 02:16:42;;;;;;;24.73;7.77;;;6.50;78.70;;;;;;5053282;28;20197;-85
2021/04/23 02:19:10;;;;;;;19.07;6.53;;;6.50;79.00;;;;;;5053028;28;20705;-84
2021/04/23 02:21:36;;;;;;;25.27;6.23;;;6.50;79.30;;;;;;5051866;28;20631;-85
2021/04/23 02:24:03;;;;;;;28.10;7.40;;;6.50;79.50;;;;;;5051736;28;20176;-85
2021/04/23 02:26:29;;;;;;;22.70;6.37;;;6.40;79.80;;;;;;5053007;28;20184;-85
2021/04/23 02:28:55;;;;;;;19.80;6.33;;;6.50;79.70;;;;;;5051584;28;20615;-85
2021/04/23 02:31:24;;;;;;;18.60;6.20;;;6.50;79.00;;;;;;5052963;28;20217;-85
2021/04/23 02:33:52;;;;;;;16.63;5.83;;;6.50;78.40;;;;;;5053117;28;20172;-85
2021/04/23 02:36:19;;;;;;;19.47;5.40;;;6.40;77.80;;;;;;5051655;28;20202;-85
2021/04/23 02:38:46;;;;;;;19.27;4.60;;;6.50;77.20;;;;;;5052978;28;20658;-84
2021/04/23 02:41:12;;;;;;;14.67;5.23;;;6.40;76.40;;;;;;5052805;28;20212;-84
2021/04/23 02:43:43;;;;;;;12.00;4.73;;;6.40;75.50;;;;;;5052945;28;20169;-84
2021/04/23 02:46:10;;;;;;;24.67;5.37;;;6.30;75.20;;;;;;5052888;28;20161;-84
2021/04/23 02:48:39;;;;;;;18.53;4.90;;;6.30;75.00;;;;;;5053075;28;20183;-84
2021/04/23 02:51:09;;;;;;;22.43;5.10;;;6.30;74.60;;;;;;5052679;28;20607;-84
2021/04/23 02:53:35;;;;;;;16.70;4.53;;;6.30;74.20;;;;;;5052903;28;20647;-85
2021/04/23 02:56:01;;;;;;;16.43;4.73;;;6.30;73.80;;;;;;5051400;28;20261;-85
2021/04/23 02:58:28;;;;;;;18.30;4.90;;;6.30;74.10;;;;;;5051523;28;20196;-84
2021/04/23 03:00:59;;;;;;;14.47;4.00;;;6.30;72.70;;;;;;5051343;28;20207;-85
2021/04/23 03:03:25;;;;;;;14.50;4.80;;;6.30;73.10;;;;;;5052796;28;20162;-84
2021/04/23 03:05:51;;;;;;;16.00;5.20;;;6.40;73.30;;;;;;5051257;28;20242;-84
2021/04/23 03:08:18;;;;;;;17.23;4.30;;;6.40;73.30;;;;;;5052550;28;20183;-85
2021/04/23 03:11:14;;;;;;;20.70;5.00;;;6.30;73.10;;;;;;5051234;28;20201;-84
2021/04/23 03:13:46;;;;;;;16.13;3.83;;;6.30;72.60;;;;;;5052286;28;20245;-85
2021/04/23 03:16:13;;;;;;;16.20;3.90;;;6.30;72.20;;;;;;5052644;28;20192;-84
2021/04/23 03:18:41;;;;;;;13.23;4.03;;;6.30;71.80;;;;;;5051213;28;20256;-84
2021/04/23 03:21:08;;;;;;;22.97;4.97;;;6.30;71.30;;;;;;5052749;28;20199;-84
2021/04/23 03:23:34;;;;;;;16.90;4.60;;;6.30;71.60;;;;;;5056112;28;20193;-85
2021/04/23 03:26:02;;;;;;;21.83;4.93;;;6.30;71.50;;;;;;5056177;28;20172;-84
2021/04/23 03:28:28;;;;;;;16.67;3.80;;;6.30;71.30;;;;;;5056047;28;20219;-84
2021/04/23 03:30:55;;;;;;;15.77;4.07;;;6.30;71.20;;;;;;5055988;28;20550;-84
2021/04/23 03:33:21;;;;;;;20.63;4.40;;;6.30;71.10;;;;;;5056134;28;20177;-84
2021/04/23 03:35:53;;;;;;;8.87;3.20;;;6.30;71.10;;;;;;5055935;28;20183;-85
2021/04/23 03:38:20;;;;;;;20.63;4.87;;;6.30;70.00;;;;;;5054652;28;20212;-84
2021/04/23 03:40:47;;;;;;;30.20;4.07;;;6.30;70.00;;;;;;5054456;28;20682;-85
2021/04/23 03:43:13;;;;;;;18.00;3.50;;;6.30;70.50;;;;;;5054525;28;20228;-85
2021/04/23 03:45:39;;;;;;;17.63;4.73;;;6.20;71.00;;;;;;5055927;28;20168;-84
2021/04/23 03:48:06;;;;;;;22.80;3.97;;;6.20;71.00;;;;;;5055714;28;20622;-84
2021/04/23 03:50:34;;;;;;;22.97;4.73;;;6.20;71.10;;;;;;5055668;28;20192;-84
2021/04/23 03:53:03;;;;;;;17.63;4.10;;;6.20;71.60;;;;;;5055947;28;20170;-84
2021/04/23 03:55:34;;;;;;;12.47;4.00;;;6.20;71.80;;;;;;5055575;28;20263;-84
2021/04/23 03:58:01;;;;;;;23.67;4.63;;;6.20;71.90;;;;;;5055529;28;20740;-84
2021/04/23 04:00:31;;;;;;;21.40;4.17;;;6.10;72.20;;;;;;5054047;28;20302;-84
2021/04/23 04:02:57;;;;;;;14.70;3.90;;;6.10;72.40;;;;;;5055925;28;20530;-85
2021/04/23 04:05:22;;;;;;;21.20;4.53;;;6.10;72.30;;;;;;5054299;28;20218;-84
2021/04/23 04:07:48;;;;;;;19.67;4.37;;;6.10;72.50;;;;;;5055489;28;20180;-85
2021/04/23 04:10:15;;;;;;;20.40;3.97;;;6.10;72.80;;;;;;5055276;28;20193;-85
2021/04/23 04:12:41;;;;;;;26.40;4.07;;;6.10;73.10;;;;;;5054073;28;20180;-85
2021/04/23 04:15:07;;;;;;;18.47;3.73;;;6.20;73.30;;;;;;5053982;28;20591;-84
2021/04/23 04:17:33;;;;;;;24.90;4.40;;;6.20;73.30;;;;;;5055076;28;20200;-84
2021/04/23 04:19:59;;;;;;;30.67;5.43;;;6.20;73.00;;;;;;5055382;28;20590;-84
2021/04/23 04:22:26;;;;;;;18.47;4.07;;;6.30;73.10;;;;;;5055139;28;20205;-85
2021/04/23 04:24:52;;;;;;;19.77;3.77;;;6.30;73.30;;;;;;5055081;28;20168;-84
2021/04/23 04:27:17;;;;;;;24.03;3.90;;;6.30;73.40;;;;;;5053963;28;20622;-85
2021/04/23 04:29:45;;;;;;;19.83;3.90;;;6.30;72.80;;;;;;5054857;28;20575;-84
2021/04/23 04:32:11;;;;;;;17.13;3.93;;;6.30;73.20;;;;;;5053730;28;20180;-85
2021/04/23 04:34:37;;;;;;;24.57;5.00;;;6.40;73.30;;;;;;5054779;28;20187;-85
2021/04/23 04:37:02;;;;;;;18.23;3.47;;;6.30;73.20;;;;;;5053450;28;20211;-85
2021/04/23 04:39:28;;;;;;;27.27;4.73;;;6.30;73.40;;;;;;5053402;28;20197;-84
2021/04/23 04:41:54;;;;;;;20.37;4.17;;;6.40;73.10;;;;;;5054849;28;20173;-85
2021/04/23 04:44:19;;;;;;;19.57;3.77;;;6.30;73.50;;;;;;5054930;28;20169;-84
2021/04/23 04:46:45;;;;;;;18.67;3.87;;;6.30;72.80;;;;;;5053369;28;20215;-84
2021/04/23 04:49:12;;;;;;;21.47;4.67;;;6.30;72.80;;;;;;5054686;28;20517;-85
2021/04/23 04:51:37;;;;;;;19.00;3.17;;;6.30;72.50;;;;;;5053172;28;20179;-85
2021/04/23 04:54:04;;;;;;;24.93;4.20;;;6.40;72.20;;;;;;5054620;28;20169;-84
2021/04/23 04:56:30;;;;;;;19.67;4.87;;;6.40;72.00;;;;;;5053064;28;20282;-84
2021/04/23 04:58:56;;;;;;;27.70;6.33;;;6.30;72.30;;;;;;5054329;28;20168;-85
2021/04/23 05:01:22;;;;;;;21.17;3.97;;;6.30;72.20;;;;;;5054034;28;20208;-85
2021/04/23 05:03:47;;;;;;;17.90;3.73;;;6.40;72.40;;;;;;5053161;28;20267;-85
2021/04/23 05:06:13;;;;;;;21.03;4.07;;;6.30;72.50;;;;;;5053400;28;20263;-85
2021/04/23 05:08:39;;;;;;;21.07;3.83;;;6.30;72.50;;;;;;5052826;28;20177;-85
2021/04/23 05:11:05;;;;;;;25.07;3.57;;;6.30;72.40;;;;;;5054059;28;20196;-84
2021/04/23 05:13:31;;;;;;;42.50;5.23;;;6.40;72.30;;;;;;5054221;28;20165;-84
2021/04/23 05:15:58;;;;;;;20.40;4.33;;;6.40;72.80;;;;;;5054117;28;20211;-84
2021/04/23 05:18:23;;;;;;;18.97;3.60;;;6.30;72.20;;;;;;5054009;28;20246;-84
2021/04/23 05:20:49;;;;;;;12.40;3.70;;;6.40;72.40;;;;;;5052637;28;20682;-85
2021/04/23 05:23:15;;;;;;;24.77;4.53;;;6.40;72.70;;;;;;5054381;28;20172;-84
2021/04/23 05:25:41;;;;;;;13.93;3.20;;;6.50;72.50;;;;;;5053911;28;20176;-85
2021/04/23 05:28:06;;;;;;;23.20;3.77;;;6.50;72.40;;;;;;5053802;28;20164;-85
2021/04/23 05:30:34;;;;;;;20.77;3.93;;;6.50;72.30;;;;;;5053827;28;20760;-84
2021/04/23 05:33:02;;;;;;;21.57;4.20;;;6.50;72.70;;;;;;5052663;28;20179;-84
2021/04/23 05:35:29;;;;;;;23.50;4.33;;;6.50;72.90;;;;;;5053898;28;20643;-85
2021/04/23 05:37:56;;;;;;;18.70;3.73;;;6.60;72.70;;;;;;5054159;28;20201;-84
2021/04/23 05:40:31;;;;;;;16.97;3.87;;;6.60;73.00;;;;;;5053821;28;20190;-84
2021/04/23 05:42:57;;;;;;;16.30;3.27;;;6.60;73.00;;;;;;5053713;28;20163;-84
2021/04/23 05:45:23;;;;;;;18.20;4.20;;;6.60;73.30;;;;;;5053584;28;20169;-84
2021/04/23 05:47:49;;;;;;;23.90;4.17;;;6.70;73.20;;;;;;5053733;28;20644;-84
2021/04/23 05:50:16;;;;;;;19.27;4.43;;;6.70;73.30;;;;;;5053380;28;20628;-84
2021/04/23 05:52:44;;;;;;;26.37;5.23;;;6.70;73.10;;;;;;5052161;28;20182;-84
2021/04/23 05:55:12;;;;;;;28.50;5.13;;;6.70;73.50;;;;;;5052234;28;20579;-84
2021/04/23 05:57:39;;;;;;;22.87;4.33;;;6.70;73.40;;;;;;5052154;28;20198;-84
2021/04/23 06:00:06;;;;;;;22.17;4.43;;;6.80;73.50;;;;;;5052113;28;20216;-84
2021/04/23 06:02:32;;;;;;;20.43;4.07;;;6.80;73.40;;;;;;5052158;28;20177;-84
2021/04/23 06:04:58;;;;;;;25.93;4.50;;;6.80;74.10;;;;;;5051985;28;20200;-83
2021/04/23 06:07:24;;;;;;;19.10;4.27;;;6.80;73.60;;;;;;5053862;28;20205;-84
2021/04/23 06:09:49;;;;;;;25.00;4.77;;;6.90;73.70;;;;;;5051833;28;20547;-84
2021/04/23 06:12:15;;;;;;;24.40;5.07;;;6.90;73.70;;;;;;5051868;28;20178;-84
2021/04/23 06:14:41;;;;;;;24.70;5.30;;;7.00;73.90;;;;;;5051886;28;20210;-84
2021/04/23 06:17:06;;;;;;;24.90;4.37;;;7.00;73.80;;;;;;5053559;28;20244;-84
2021/04/23 06:19:33;;;;;;;31.53;5.37;;;7.00;73.60;;;;;;5051684;28;20205;-84
2021/04/23 06:22:00;;;;;;;28.73;5.00;;;7.10;73.60;;;;;;5051760;28;20219;-84
2021/04/23 06:24:26;;;;;;;27.80;4.23;;;7.20;73.30;;;;;;5052088;28;20187;-84
2021/04/23 06:26:51;;;;;;;25.90;4.30;;;7.10;73.80;;;;;;5053042;28;20585;-83
2021/04/23 06:29:17;;;;;;;25.87;4.77;;;7.30;73.50;;;;;;5053015;28;20258;-83
2021/04/23 06:31:43;;;;;;;29.77;4.67;;;7.30;73.30;;;;;;5053301;28;20178;-83
2021/04/23 06:34:08;;;;;;;19.03;4.50;;;7.30;73.30;;;;;;5051761;28;20554;-84
2021/04/23 06:36:34;;;;;;;23.70;4.50;;;7.40;73.60;;;;;;5053087;28;20738;-85
2021/04/23 06:39:00;;;;;;;19.37;4.67;;;7.40;73.80;;;;;;5053414;28;20167;-84
2021/04/23 06:41:25;;;;;;;24.33;5.33;;;7.70;73.70;;;;;;5052961;28;20176;-86
2021/04/23 06:43:51;;;;;;;24.73;5.67;;;7.70;73.40;;;;;;5051555;28;20205;-85
2021/04/23 06:46:17;;;;;;;28.20;5.23;;;7.70;73.00;;;;;;5051933;28;20265;-85
2021/04/23 06:48:47;;;;;;;28.07;5.30;;;7.80;72.90;;;;;;5051707;28;20222;-85
2021/04/23 06:51:13;;;;;;;26.20;5.23;;;7.70;71.60;;;;;;5051561;28;20764;-85
2021/04/23 06:53:38;;;;;;;25.77;4.63;;;7.80;71.20;;;;;;5052975;28;20251;-85
2021/04/23 06:56:04;;;;;;;29.50;5.03;;;7.80;70.60;;;;;;5053009;28;20207;-84
2021/04/23 06:58:30;;;;;;;23.60;5.00;;;7.80;70.70;;;;;;5056938;28;20523;-85
2021/04/23 07:00:56;;;;;;;26.43;4.40;;;7.90;70.80;;;;;;5055390;28;20693;-85
2021/04/23 07:03:22;;;;;;;20.57;5.30;;;7.80;71.50;;;;;;5056782;28;20183;-85
2021/04/23 07:05:48;;;;;;;29.07;5.40;;;7.90;71.70;;;;;;5055422;28;20190;-85
2021/04/23 07:08:14;;;;;;;26.00;6.00;;;8.00;70.40;;;;;;5056576;28;20202;-85
2021/04/23 07:10:41;;;;;;;32.67;5.67;;;8.10;70.20;;;;;;5055147;28;20219;-85
2021/04/23 07:13:06;;;;;;;25.10;4.70;;;8.10;69.60;;;;;;5056529;28;20168;-84
2021/04/23 07:15:34;;;;;;;24.03;4.33;;;8.10;70.80;;;;;;5055210;28;20596;-85
2021/04/23 07:18:02;;;;;;;22.50;4.60;;;8.00;70.40;;;;;;5056300;28;20269;-84
2021/04/23 07:20:28;;;;;;;21.93;4.07;;;8.10;69.70;;;;;;5056148;28;20791;-85
2021/04/23 07:22:53;;;;;;;27.00;4.97;;;8.20;68.30;;;;;;5056722;28;20298;-86
2021/04/23 07:25:21;;;;;;;20.17;4.97;;;8.30;68.40;;;;;;5056332;28;20199;-85
2021/04/23 07:27:47;;;;;;;31.43;4.37;;;8.20;69.90;;;;;;5056441;28;20175;-84
2021/04/23 07:30:17;;;;;;;22.23;4.87;;;8.20;69.20;;;;;;5056279;28;20551;-85
2021/04/23 07:32:43;;;;;;;21.27;4.70;;;8.20;69.50;;;;;;5056374;28;20201;-85
2021/04/23 07:35:09;;;;;;;21.83;4.77;;;8.20;69.60;;;;;;5055032;28;20176;-85
2021/04/23 07:37:35;;;;;;;25.13;5.03;;;8.20;69.20;;;;;;5056622;28;20199;-85
2021/04/23 07:40:03;;;;;;;27.13;4.73;;;8.20;69.30;;;;;;5056146;28;20192;-85
2021/04/23 07:42:28;;;;;;;23.60;5.10;;;8.10;69.80;;;;;;5054954;28;20552;-85
2021/04/23 07:44:55;;;;;;;22.20;4.33;;;8.10;68.50;;;;;;5054672;28;20168;-86
2021/04/23 07:47:21;;;;;;;31.80;5.10;;;8.20;69.40;;;;;;5054504;28;20176;-85
2021/04/23 07:49:48;;;;;;;19.10;4.73;;;8.30;70.60;;;;;;5054283;28;20234;-86
2021/04/23 07:52:14;;;;;;;21.27;4.60;;;8.40;70.00;;;;;;5054461;28;20648;-86
2021/04/23 07:54:40;;;;;;;19.93;4.33;;;8.60;70.20;;;;;;5055916;28;20187;-86
2021/04/23 07:57:07;;;;;;;27.83;5.63;;;8.60;68.50;;;;;;5055368;28;20192;-85
2021/04/23 07:59:32;;;;;;;20.33;4.17;;;8.70;68.90;;;;;;5055238;28;20592;-85
2021/04/23 08:01:58;;;;;;;19.70;4.50;;;8.80;68.30;;;;;;5055395;28;20176;-85
2021/04/23 08:04:25;;;;;;;21.73;4.53;;;8.90;67.80;;;;;;5054063;28;20199;-85
2021/04/23 08:06:50;;;;;;;18.90;4.50;;;8.90;66.60;;;;;;5055214;28;20172;-85
2021/04/23 08:09:16;;;;;;;21.80;4.73;;;9.20;67.50;;;;;;5055156;28;20168;-84
2021/04/23 08:11:42;;;;;;;16.87;3.77;;;9.20;68.10;;;;;;5053946;28;20552;-87
2021/04/23 08:14:07;;;;;;;18.70;3.43;;;9.30;67.90;;;;;;5053913;28;20172;-86
2021/04/23 08:16:33;;;;;;;21.53;4.93;;;9.20;67.10;;;;;;5053996;28;20196;-86
2021/04/23 08:18:59;;;;;;;23.43;5.13;;;9.30;67.10;;;;;;5054083;28;20204;-86
2021/04/23 08:21:24;;;;;;;18.00;4.80;;;9.10;66.50;;;;;;5055094;28;20170;-86
2021/04/23 08:23:50;;;;;;;25.33;4.23;;;9.10;66.50;;;;;;5053661;28;20186;-86
2021/04/23 08:26:17;;;;;;;18.83;3.83;;;9.30;64.60;;;;;;5053631;28;20178;-86
2021/04/23 08:28:43;;;;;;;16.13;3.77;;;9.30;64.10;;;;;;5053617;28;20176;-86
2021/04/23 08:31:09;;;;;;;22.83;4.53;;;9.40;65.90;;;;;;5053493;28;20215;-86
2021/04/23 08:33:35;;;;;;;19.83;4.30;;;9.50;65.10;;;;;;5053528;28;20215;-86
2021/04/23 08:36:00;;;;;;;21.03;4.30;;;9.50;63.30;;;;;;5053442;28;20192;-86
2021/04/23 08:38:27;;;;;;;26.53;4.77;;;9.60;61.40;;;;;;5054829;28;20170;-86
2021/04/23 08:40:57;;;;;;;23.13;4.83;;;9.70;63.00;;;;;;5053349;28;20192;-85
2021/04/23 08:43:24;;;;;;;17.90;4.80;;;9.70;63.20;;;;;;5054811;28;20174;-86
2021/04/23 08:45:50;;;;;;;22.57;4.70;;;9.80;63.80;;;;;;5053304;28;20172;-86
2021/04/23 08:48:16;;;;;;;20.73;3.60;;;10.00;63.60;;;;;;5054713;28;20175;-85
2021/04/23 08:50:42;;;;;;;12.37;3.07;;;9.50;62.80;;;;;;5054953;28;20204;-86
2021/04/23 08:53:09;;;;;;;12.03;3.23;;;9.70;61.60;;;;;;5053156;28;20195;-86
2021/04/23 08:55:34;;;;;;;14.13;3.70;;;9.80;60.90;;;;;;5054440;28;20167;-86
2021/04/23 08:58:01;;;;;;;15.53;3.20;;;10.00;62.80;;;;;;5054537;28;20250;-86
2021/04/23 09:00:27;;;;;;;17.53;3.87;;;10.20;61.80;;;;;;5052992;28;20212;-86
2021/04/23 09:02:53;;;;;;;28.33;4.67;;;10.30;60.60;;;;;;5054643;28;20171;-86
2021/04/23 09:05:19;;;;;;;20.20;4.50;;;10.30;61.10;;;;;;5052994;28;20654;-86
2021/04/23 09:08:05;;;;;;;20.30;4.10;;;10.30;60.90;;;;;;5054053;28;20175;-87
2021/04/23 09:10:32;;;;;;;21.93;3.90;;;10.60;61.20;;;;;;5054181;28;20673;-86
2021/04/23 09:13:11;;;;;;;12.93;2.90;;;10.70;59.70;;;;;;5052939;28;20221;-86
2021/04/23 09:15:37;;;;;;;20.73;4.27;;;10.40;59.60;;;;;;5052834;28;20175;-86
2021/04/23 09:18:11;;;;;;;16.30;4.20;;;10.40;60.50;;;;;;5052097;28;20665;-86
2021/04/23 09:20:42;;;;;;;19.53;4.77;;;10.70;59.40;;;;;;5053898;28;20669;-86
2021/04/23 09:23:12;;;;;;;24.53;4.00;;;10.90;58.60;;;;;;5052656;28;20544;-86
2021/04/23 09:25:40;;;;;;;19.27;3.87;;;10.80;58.50;;;;;;5053937;28;20159;-86
2021/04/23 09:28:05;;;;;;;20.90;4.33;;;10.80;58.50;;;;;;5053820;28;20172;-86
2021/04/23 09:30:31;;;;;;;20.50;3.97;;;11.00;58.80;;;;;;5052659;28;20257;-86
2021/04/23 09:32:57;;;;;;;17.57;4.03;;;11.00;56.50;;;;;;5052526;28;20266;-86
2021/04/23 09:35:23;;;;;;;20.33;4.40;;;11.20;57.40;;;;;;5052522;28;20180;-86
2021/04/23 09:37:54;;;;;;;15.37;3.90;;;11.30;58.10;;;;;;5052323;28;20203;-86
2021/04/23 09:40:24;;;;;;;18.07;4.57;;;11.50;58.00;;;;;;5053634;28;20584;-87
2021/04/23 09:43:01;;;;;;;22.80;4.33;;;11.50;58.20;;;;;;5053394;28;20641;-86
2021/04/23 09:45:29;;;;;;;20.67;3.90;;;11.90;57.60;;;;;;5053407;28;20159;-86
2021/04/23 09:47:56;;;;;;;20.40;4.50;;;11.60;54.90;;;;;;5053574;28;20172;-86
2021/04/23 09:50:31;;;;;;;16.50;3.93;;;11.20;56.00;;;;;;5053866;28;20217;-86
2021/04/23 09:52:58;;;;;;;17.80;4.17;;;11.20;57.10;;;;;;5053096;28;20176;-86
2021/04/23 09:55:27;;;;;;;21.90;3.43;;;11.40;56.30;;;;;;5053591;28;20259;-85
2021/04/23 09:58:14;;;;;;;18.57;4.17;;;11.80;56.00;;;;;;5053369;28;20196;-86
2021/04/23 10:00:41;;;;;;;11.53;2.90;;;12.10;55.40;;;;;;5053696;28;20238;-86
2021/04/23 10:03:07;;;;;;;23.43;4.47;;;11.60;55.20;;;;;;5052201;28;20182;-86
2021/04/23 10:05:40;;;;;;;19.87;4.80;;;11.60;56.70;;;;;;5053715;28;20182;-86
2021/04/23 10:08:11;;;;;;;20.63;4.07;;;11.70;55.90;;;;;;5052095;28;20168;-86
2021/04/23 10:10:39;;;;;;;15.97;3.13;;;11.80;55.70;;;;;;5053214;28;20215;-86
2021/04/23 10:13:08;;;;;;;17.57;4.10;;;12.10;54.90;;;;;;5053620;28;20176;-86
2021/04/23 10:15:40;;;;;;;22.70;4.83;;;12.10;55.60;;;;;;5053228;28;20199;-86
2021/04/23 10:18:14;;;;;;;17.17;3.70;;;12.20;54.50;;;;;;5053717;28;20566;-86
2021/04/23 10:20:42;;;;;;;15.10;3.80;;;12.20;53.30;;;;;;5051956;28;20226;-86
2021/04/23 10:23:27;;;;;;;17.70;4.00;;;11.80;55.40;;;;;;5053160;28;20164;-85
2021/04/23 10:25:53;;;;;;;14.77;3.40;;;11.70;56.00;;;;;;5052119;28;20168;-86
2021/04/23 10:28:21;;;;;;;13.40;3.73;;;12.30;55.00;;;;;;5051619;28;20178;-86
2021/04/23 10:30:50;;;;;;;16.93;3.37;;;12.30;54.10;;;;;;5054390;28;20594;-86
2021/04/23 10:33:17;;;;;;;19.20;4.27;;;12.30;55.50;;;;;;5055952;28;20172;-86
2021/04/23 10:35:46;;;;;;;15.53;3.27;;;12.00;54.90;;;;;;5055884;28;20664;-85
2021/04/23 10:38:17;;;;;;;15.30;3.80;;;12.00;54.90;;;;;;5057104;28;20196;-85
2021/04/23 10:40:45;;;;;;;12.27;3.80;;;12.50;54.60;;;;;;5057123;28;20215;-86
2021/04/23 10:43:16;;;;;;;14.90;3.90;;;12.50;54.70;;;;;;5056982;28;20478;-85
2021/04/23 10:45:48;;;;;;;17.50;4.07;;;12.50;52.50;;;;;;5057038;28;20171;-86
2021/04/23 10:48:17;;;;;;;14.47;3.77;;;12.30;55.00;;;;;;5057232;28;20242;-85
2021/04/23 10:51:00;;;;;;;15.53;3.50;;;12.90;53.80;;;;;;5057336;28;20192;-85
2021/04/23 10:53:26;;;;;;;19.20;3.80;;;13.10;52.20;;;;;;5057232;28;20618;-85
2021/04/23 10:56:00;;;;;;;16.43;4.30;;;13.20;51.50;;;;;;5057049;28;20168;-85
2021/04/23 10:58:26;;;;;;;12.83;2.90;;;13.20;51.70;;;;;;5056913;28;20610;-85
2021/04/23 11:00:53;;;;;;;13.90;3.80;;;12.80;51.90;;;;;;5055420;28;20266;-86
2021/04/23 11:03:32;;;;;;;14.77;4.00;;;13.20;50.80;;;;;;5056684;28;20218;-86
2021/04/23 11:06:18;;;;;;;15.83;4.00;;;13.20;49.70;;;;;;5056695;28;20196;-86
2021/04/23 11:09:20;;;;;;;19.50;4.40;;;13.30;49.70;;;;;;5055207;28;20178;-84
2021/04/23 11:12:07;;;;;;;11.90;3.13;;;12.70;52.90;;;;;;5045038;28;20553;-86
2021/04/23 11:14:36;;;;;;;19.00;4.07;;;13.00;53.60;;;;;;5055113;28;20180;-87
2021/04/23 11:17:17;;;;;;;16.87;3.73;;;12.80;53.30;;;;;;5054876;28;20580;-84
2021/04/23 11:19:49;;;;;;;14.80;3.80;;;12.80;54.30;;;;;;5056241;28;20180;-86
2021/04/23 11:22:23;;;;;;;16.47;4.10;;;12.80;54.00;;;;;;5056533;28;20176;-86
2021/04/23 11:25:15;;;;;;;15.50;3.47;;;12.60;55.50;;;;;;5055032;28;20255;-86
2021/04/23 11:27:59;;;;;;;17.00;3.40;;;13.00;55.20;;;;;;5056148;28;20541;-86
2021/04/23 11:30:25;;;;;;;17.27;3.87;;;12.80;53.60;;;;;;5054771;28;20192;-87
2021/04/23 11:32:52;;;;;;;16.77;3.90;;;12.90;53.90;;;;;;5056198;28;20176;-87
2021/04/23 11:35:21;;;;;;;16.73;4.27;;;12.60;55.30;;;;;;5056312;28;20180;-86
2021/04/23 11:37:48;;;;;;;22.37;4.50;;;12.40;55.60;;;;;;5055086;28;20330;-86
2021/04/23 11:40:17;;;;;;;18.40;4.20;;;13.00;55.00;;;;;;5056273;28;20196;-86
2021/04/23 11:42:46;;;;;;;12.93;3.00;;;12.30;55.60;;;;;;5054275;28;20172;-87
2021/04/23 11:45:17;;;;;;;20.43;3.87;;;12.30;54.90;;;;;;5056328;28;20196;-87
2021/04/23 11:47:53;;;;;;;23.80;4.07;;;12.30;54.30;;;;;;5056220;28;20172;-86
2021/04/23 11:50:32;;;;;;;14.57;3.30;;;12.60;53.80;;;;;;5054646;28;20199;-86
2021/04/23 11:53:06;;;;;;;13.67;3.17;;;13.00;53.10;;;;;;5054998;28;20693;-86
2021/04/23 11:55:35;;;;;;;12.43;3.43;;;13.30;51.50;;;;;;5055516;28;20692;-86
2021/04/23 11:58:05;;;;;;;13.20;3.17;;;13.20;52.40;;;;;;5055492;28;20192;-84
2021/04/23 12:00:31;;;;;;;14.33;3.37;;;13.30;51.20;;;;;;5054224;28;20215;-85
2021/04/23 12:02:59;;;;;;;11.20;3.40;;;13.00;49.80;;;;;;5054287;28;20173;-87
2021/04/23 12:05:24;;;;;;;12.67;2.87;;;13.30;50.00;;;;;;5055423;28;20622;-87
2021/04/23 12:07:52;;;;;;;14.50;3.70;;;13.00;50.40;;;;;;5054261;28;20214;-87
2021/04/23 12:10:19;;;;;;;12.47;3.37;;;13.20;53.00;;;;;;5054140;28;20242;-87
2021/04/23 12:12:46;;;;;;;19.50;3.67;;;13.30;50.20;;;;;;5054101;28;20267;-84
2021/04/23 12:15:20;;;;;;;10.57;3.23;;;13.00;50.20;;;;;;5055282;28;20657;-84
2021/04/23 12:17:46;;;;;;;13.90;3.10;;;13.30;51.80;;;;;;5053919;28;20573;-84
2021/04/23 12:20:17;;;;;;;15.80;3.47;;;13.40;51.30;;;;;;5053695;28;20204;-84
2021/04/23 12:22:43;;;;;;;17.23;3.30;;;13.80;50.60;;;;;;5055074;28;20156;-84
2021/04/23 12:25:44;;;;;;;18.70;3.60;;;14.00;48.00;;;;;;5055232;28;20199;-84
2021/04/23 12:28:27;;;;;;;14.17;3.57;;;13.80;49.30;;;;;;5053769;28;20199;-84
2021/04/23 12:31:19;;;;;;;22.37;4.40;;;13.80;50.70;;;;;;5053856;28;20199;-87
2021/04/23 12:33:51;;;;;;;19.00;3.87;;;13.20;52.20;;;;;;5053764;28;20592;-86
2021/04/23 12:36:22;;;;;;;14.70;4.07;;;13.20;51.30;;;;;;5055024;28;20168;-87
2021/04/23 12:38:59;;;;;;;14.60;3.60;;;13.20;50.90;;;;;;5053715;28;20636;-84
2021/04/23 12:41:37;;;;;;;14.53;3.50;;;13.40;51.70;;;;;;5055362;28;20157;-84
2021/04/23 12:44:09;;;;;;;18.87;4.13;;;13.80;50.40;;;;;;5053655;28;20306;-84
2021/04/23 12:46:39;;;;;;;13.03;3.07;;;13.30;50.20;;;;;;5053688;28;20251;-86
2021/04/23 12:49:05;;;;;;;17.50;3.97;;;12.90;51.30;;;;;;5053576;28;20168;-85